sensor_id;sensor_type;location;lat;lon;timestamp;P1;durP1;ratioP1;P2;durP2;ratioP2
3333;SDS011;1679;50.392;8.008;2023-06-26T00:00:02;10.40;;;9.50;;
3333;SDS011;1679;50.392;8.008;2023-06-26T00:02:30;10.60;;;9.80;;
3333;SDS011;1679;50.392;8.008;2023-06-26T00:04:57;10.23;;;9.53;;
3333;SDS011;1679;50.392;8.008;2023-06-26T00:07:23;10.93;;;10.03;;
3333;SDS011;1679;50.392;8.008;2023-06-26T00:09:49;10.17;;;9.40;;
3333;SDS011;1679;50.392;8.008;2023-06-26T00:12:14;10.97;;;9.83;;
3333;SDS011;1679;50.392;8.008;2023-06-26T00:14:40;10.87;;;9.97;;
3333;SDS011;1679;50.392;8.008;2023-06-26T00:17:05;10.17;;;9.20;;
3333;SDS011;1679;50.392;8.008;2023-06-26T00:19:31;10.90;;;10.00;;
3333;SDS011;1679;50.392;8.008;2023-06-26T00:21:56;10.47;;;9.67;;
3333;SDS011;1679;50.392;8.008;2023-06-26T00:24:22;10.57;;;9.67;;
3333;SDS011;1679;50.392;8.008;2023-06-26T00:26:47;10.40;;;9.50;;
3333;SDS011;1679;50.392;8.008;2023-06-26T00:29:13;10.40;;;9.50;;
3333;SDS011;1679;50.392;8.008;2023-06-26T00:31:39;10.10;;;9.30;;
3333;SDS011;1679;50.392;8.008;2023-06-26T00:34:05;11.27;;;10.30;;
3333;SDS011;1679;50.392;8.008;2023-06-26T00:36:31;11.53;;;10.40;;
3333;SDS011;1679;50.392;8.008;2023-06-26T00:38:57;11.47;;;10.43;;
3333;SDS011;1679;50.392;8.008;2023-06-26T00:41:23;12.00;;;11.00;;
3333;SDS011;1679;50.392;8.008;2023-06-26T00:43:49;11.60;;;10.70;;
3333;SDS011;1679;50.392;8.008;2023-06-26T00:46:14;10.20;;;9.37;;
3333;SDS011;1679;50.392;8.008;2023-06-26T00:48:41;10.83;;;9.97;;
3333;SDS011;1679;50.392;8.008;2023-06-26T00:51:07;11.27;;;10.37;;
3333;SDS011;1679;50.392;8.008;2023-06-26T00:53:34;10.90;;;9.90;;
3333;SDS011;1679;50.392;8.008;2023-06-26T00:56:00;10.73;;;9.83;;
3333;SDS011;1679;50.392;8.008;2023-06-26T00:58:27;10.23;;;9.40;;
3333;SDS011;1679;50.392;8.008;2023-06-26T01:00:53;12.03;;;11.03;;
3333;SDS011;1679;50.392;8.008;2023-06-26T01:03:19;11.33;;;10.40;;
3333;SDS011;1679;50.392;8.008;2023-06-26T01:05:47;11.33;;;10.10;;
3333;SDS011;1679;50.392;8.008;2023-06-26T01:08:14;11.80;;;10.90;;
3333;SDS011;1679;50.392;8.008;2023-06-26T01:10:40;10.93;;;10.00;;
3333;SDS011;1679;50.392;8.008;2023-06-26T01:13:06;12.63;;;11.43;;
3333;SDS011;1679;50.392;8.008;2023-06-26T01:15:33;11.67;;;10.70;;
3333;SDS011;1679;50.392;8.008;2023-06-26T01:17:58;11.37;;;10.43;;
3333;SDS011;1679;50.392;8.008;2023-06-26T01:20:28;11.60;;;10.60;;
3333;SDS011;1679;50.392;8.008;2023-06-26T01:25:37;10.47;;;9.67;;
3333;SDS011;1679;50.392;8.008;2023-06-26T01:28:15;11.57;;;10.63;;
3333;SDS011;1679;50.392;8.008;2023-06-26T01:30:43;12.17;;;11.13;;
3333;SDS011;1679;50.392;8.008;2023-06-26T01:33:10;11.83;;;10.80;;
3333;SDS011;1679;50.392;8.008;2023-06-26T01:35:40;11.03;;;10.10;;
3333;SDS011;1679;50.392;8.008;2023-06-26T01:40:42;10.87;;;10.03;;
3333;SDS011;1679;50.392;8.008;2023-06-26T01:46:07;10.77;;;9.97;;
3333;SDS011;1679;50.392;8.008;2023-06-26T01:48:55;10.57;;;9.67;;
3333;SDS011;1679;50.392;8.008;2023-06-26T01:51:23;11.33;;;10.33;;
3333;SDS011;1679;50.392;8.008;2023-06-26T01:53:55;11.00;;;10.10;;
3333;SDS011;1679;50.392;8.008;2023-06-26T01:56:23;12.00;;;10.87;;
3333;SDS011;1679;50.392;8.008;2023-06-26T01:58:50;13.37;;;11.40;;
3333;SDS011;1679;50.392;8.008;2023-06-26T02:01:20;11.30;;;10.40;;
3333;SDS011;1679;50.392;8.008;2023-06-26T02:03:46;11.33;;;10.43;;
3333;SDS011;1679;50.392;8.008;2023-06-26T02:06:12;12.17;;;11.00;;
3333;SDS011;1679;50.392;8.008;2023-06-26T02:08:37;11.13;;;10.10;;
3333;SDS011;1679;50.392;8.008;2023-06-26T02:11:03;11.20;;;10.30;;
3333;SDS011;1679;50.392;8.008;2023-06-26T02:13:28;10.90;;;10.00;;
3333;SDS011;1679;50.392;8.008;2023-06-26T02:15:54;12.30;;;11.17;;
3333;SDS011;1679;50.392;8.008;2023-06-26T02:18:19;14.97;;;10.10;;
3333;SDS011;1679;50.392;8.008;2023-06-26T02:20:47;10.80;;;10.00;;
3333;SDS011;1679;50.392;8.008;2023-06-26T02:23:13;11.70;;;10.67;;
3333;SDS011;1679;50.392;8.008;2023-06-26T02:25:39;11.43;;;10.40;;
3333;SDS011;1679;50.392;8.008;2023-06-26T02:28:04;11.70;;;10.80;;
3333;SDS011;1679;50.392;8.008;2023-06-26T02:30:30;12.47;;;11.40;;
3333;SDS011;1679;50.392;8.008;2023-06-26T02:32:55;13.10;;;11.90;;
3333;SDS011;1679;50.392;8.008;2023-06-26T02:35:21;11.50;;;10.60;;
3333;SDS011;1679;50.392;8.008;2023-06-26T02:37:46;10.83;;;9.93;;
3333;SDS011;1679;50.392;8.008;2023-06-26T02:40:12;11.73;;;10.73;;
3333;SDS011;1679;50.392;8.008;2023-06-26T02:42:37;11.90;;;10.87;;
3333;SDS011;1679;50.392;8.008;2023-06-26T02:45:03;11.30;;;10.30;;
3333;SDS011;1679;50.392;8.008;2023-06-26T02:47:28;11.43;;;10.53;;
3333;SDS011;1679;50.392;8.008;2023-06-26T02:49:54;11.60;;;10.70;;
3333;SDS011;1679;50.392;8.008;2023-06-26T02:52:19;12.50;;;11.40;;
3333;SDS011;1679;50.392;8.008;2023-06-26T02:54:45;11.60;;;10.60;;
3333;SDS011;1679;50.392;8.008;2023-06-26T02:57:10;12.17;;;11.07;;
3333;SDS011;1679;50.392;8.008;2023-06-26T02:59:39;11.80;;;10.70;;
3333;SDS011;1679;50.392;8.008;2023-06-26T03:02:05;11.30;;;10.40;;
3333;SDS011;1679;50.392;8.008;2023-06-26T03:04:30;11.47;;;10.60;;
3333;SDS011;1679;50.392;8.008;2023-06-26T03:06:56;11.53;;;10.57;;
3333;SDS011;1679;50.392;8.008;2023-06-26T03:09:21;11.90;;;10.90;;
3333;SDS011;1679;50.392;8.008;2023-06-26T03:11:47;12.07;;;10.97;;
3333;SDS011;1679;50.392;8.008;2023-06-26T03:14:13;12.37;;;11.27;;
3333;SDS011;1679;50.392;8.008;2023-06-26T03:16:39;11.80;;;10.80;;
3333;SDS011;1679;50.392;8.008;2023-06-26T03:19:05;12.33;;;11.33;;
3333;SDS011;1679;50.392;8.008;2023-06-26T03:21:30;12.30;;;11.20;;
3333;SDS011;1679;50.392;8.008;2023-06-26T03:23:56;11.50;;;10.60;;
3333;SDS011;1679;50.392;8.008;2023-06-26T03:26:22;11.53;;;10.53;;
3333;SDS011;1679;50.392;8.008;2023-06-26T03:28:52;11.47;;;10.57;;
3333;SDS011;1679;50.392;8.008;2023-06-26T03:31:18;11.93;;;10.93;;
3333;SDS011;1679;50.392;8.008;2023-06-26T03:33:44;11.10;;;10.20;;
3333;SDS011;1679;50.392;8.008;2023-06-26T03:36:10;13.10;;;11.80;;
3333;SDS011;1679;50.392;8.008;2023-06-26T03:38:35;12.77;;;11.77;;
3333;SDS011;1679;50.392;8.008;2023-06-26T03:41:01;13.60;;;12.50;;
3333;SDS011;1679;50.392;8.008;2023-06-26T03:43:27;12.60;;;11.60;;
3333;SDS011;1679;50.392;8.008;2023-06-26T03:45:52;11.43;;;10.40;;
3333;SDS011;1679;50.392;8.008;2023-06-26T03:48:18;11.20;;;10.30;;
3333;SDS011;1679;50.392;8.008;2023-06-26T03:50:44;10.80;;;9.80;;
3333;SDS011;1679;50.392;8.008;2023-06-26T03:53:12;10.83;;;9.90;;
3333;SDS011;1679;50.392;8.008;2023-06-26T03:55:37;11.67;;;10.67;;
3333;SDS011;1679;50.392;8.008;2023-06-26T03:58:03;11.10;;;10.10;;
3333;SDS011;1679;50.392;8.008;2023-06-26T04:00:29;11.80;;;10.80;;
3333;SDS011;1679;50.392;8.008;2023-06-26T04:02:55;12.60;;;11.30;;
3333;SDS011;1679;50.392;8.008;2023-06-26T04:05:21;11.47;;;10.37;;
3333;SDS011;1679;50.392;8.008;2023-06-26T04:07:50;11.10;;;10.10;;
3333;SDS011;1679;50.392;8.008;2023-06-26T04:10:17;11.13;;;10.23;;
3333;SDS011;1679;50.392;8.008;2023-06-26T04:12:43;12.20;;;11.20;;
3333;SDS011;1679;50.392;8.008;2023-06-26T04:15:08;11.63;;;10.60;;
3333;SDS011;1679;50.392;8.008;2023-06-26T04:17:34;11.43;;;10.53;;
3333;SDS011;1679;50.392;8.008;2023-06-26T04:19:59;12.50;;;11.50;;
3333;SDS011;1679;50.392;8.008;2023-06-26T04:22:25;12.87;;;11.60;;
3333;SDS011;1679;50.392;8.008;2023-06-26T04:24:50;12.80;;;11.60;;
3333;SDS011;1679;50.392;8.008;2023-06-26T04:27:16;17.30;;;11.57;;
3333;SDS011;1679;50.392;8.008;2023-06-26T04:29:43;11.07;;;10.07;;
3333;SDS011;1679;50.392;8.008;2023-06-26T04:32:08;12.40;;;11.30;;
3333;SDS011;1679;50.392;8.008;2023-06-26T04:34:34;12.23;;;11.23;;
3333;SDS011;1679;50.392;8.008;2023-06-26T04:37:01;12.03;;;11.03;;
3333;SDS011;1679;50.392;8.008;2023-06-26T04:39:29;12.37;;;11.37;;
3333;SDS011;1679;50.392;8.008;2023-06-26T04:41:55;11.47;;;10.37;;
3333;SDS011;1679;50.392;8.008;2023-06-26T04:44:21;12.70;;;11.70;;
3333;SDS011;1679;50.392;8.008;2023-06-26T04:46:46;12.27;;;11.27;;
3333;SDS011;1679;50.392;8.008;2023-06-26T04:49:12;12.73;;;11.50;;
3333;SDS011;1679;50.392;8.008;2023-06-26T04:51:38;11.20;;;10.37;;
3333;SDS011;1679;50.392;8.008;2023-06-26T04:54:05;12.50;;;11.40;;
3333;SDS011;1679;50.392;8.008;2023-06-26T04:56:32;11.23;;;10.33;;
3333;SDS011;1679;50.392;8.008;2023-06-26T04:58:57;11.67;;;10.67;;
3333;SDS011;1679;50.392;8.008;2023-06-26T05:01:23;11.87;;;10.87;;
3333;SDS011;1679;50.392;8.008;2023-06-26T05:03:48;13.00;;;11.27;;
3333;SDS011;1679;50.392;8.008;2023-06-26T05:06:14;11.80;;;10.90;;
3333;SDS011;1679;50.392;8.008;2023-06-26T05:08:39;12.97;;;11.53;;
3333;SDS011;1679;50.392;8.008;2023-06-26T05:11:05;13.53;;;12.43;;
3333;SDS011;1679;50.392;8.008;2023-06-26T05:13:30;13.13;;;11.73;;
3333;SDS011;1679;50.392;8.008;2023-06-26T05:15:56;11.90;;;10.87;;
3333;SDS011;1679;50.392;8.008;2023-06-26T05:18:21;12.30;;;11.07;;
3333;SDS011;1679;50.392;8.008;2023-06-26T05:20:47;13.23;;;12.00;;
3333;SDS011;1679;50.392;8.008;2023-06-26T05:23:13;11.73;;;10.00;;
3333;SDS011;1679;50.392;8.008;2023-06-26T05:25:38;12.63;;;11.57;;
3333;SDS011;1679;50.392;8.008;2023-06-26T05:28:05;12.07;;;11.07;;
3333;SDS011;1679;50.392;8.008;2023-06-26T05:30:31;13.07;;;11.97;;
3333;SDS011;1679;50.392;8.008;2023-06-26T05:33:00;16.43;;;13.07;;
3333;SDS011;1679;50.392;8.008;2023-06-26T05:35:28;12.93;;;11.23;;
3333;SDS011;1679;50.392;8.008;2023-06-26T05:37:57;14.50;;;12.53;;
3333;SDS011;1679;50.392;8.008;2023-06-26T05:40:23;13.90;;;12.37;;
3333;SDS011;1679;50.392;8.008;2023-06-26T05:42:49;11.77;;;10.70;;
3333;SDS011;1679;50.392;8.008;2023-06-26T05:45:15;12.23;;;11.13;;
3333;SDS011;1679;50.392;8.008;2023-06-26T05:47:41;13.20;;;12.10;;
3333;SDS011;1679;50.392;8.008;2023-06-26T05:50:07;12.90;;;11.60;;
3333;SDS011;1679;50.392;8.008;2023-06-26T05:52:34;12.10;;;10.90;;
3333;SDS011;1679;50.392;8.008;2023-06-26T05:55:00;11.93;;;10.83;;
3333;SDS011;1679;50.392;8.008;2023-06-26T05:57:26;11.73;;;10.53;;
3333;SDS011;1679;50.392;8.008;2023-06-26T05:59:53;12.60;;;11.50;;
3333;SDS011;1679;50.392;8.008;2023-06-26T06:02:19;11.50;;;10.50;;
3333;SDS011;1679;50.392;8.008;2023-06-26T06:04:44;13.80;;;11.70;;
3333;SDS011;1679;50.392;8.008;2023-06-26T06:07:10;12.03;;;10.90;;
3333;SDS011;1679;50.392;8.008;2023-06-26T06:09:36;11.83;;;10.83;;
3333;SDS011;1679;50.392;8.008;2023-06-26T06:12:03;13.00;;;11.10;;
3333;SDS011;1679;50.392;8.008;2023-06-26T06:14:32;12.07;;;10.97;;
3333;SDS011;1679;50.392;8.008;2023-06-26T06:16:57;12.47;;;11.23;;
3333;SDS011;1679;50.392;8.008;2023-06-26T06:19:23;11.40;;;10.30;;
3333;SDS011;1679;50.392;8.008;2023-06-26T06:21:49;12.30;;;11.30;;
3333;SDS011;1679;50.392;8.008;2023-06-26T06:24:14;10.47;;;9.47;;
3333;SDS011;1679;50.392;8.008;2023-06-26T06:26:40;11.20;;;10.23;;
3333;SDS011;1679;50.392;8.008;2023-06-26T06:29:05;10.47;;;9.40;;
3333;SDS011;1679;50.392;8.008;2023-06-26T06:31:31;12.07;;;10.87;;
3333;SDS011;1679;50.392;8.008;2023-06-26T06:33:57;11.00;;;10.10;;
3333;SDS011;1679;50.392;8.008;2023-06-26T06:36:22;11.03;;;10.03;;
3333;SDS011;1679;50.392;8.008;2023-06-26T06:38:48;11.73;;;10.73;;
3333;SDS011;1679;50.392;8.008;2023-06-26T06:41:13;12.60;;;10.43;;
3333;SDS011;1679;50.392;8.008;2023-06-26T06:43:41;11.07;;;10.00;;
3333;SDS011;1679;50.392;8.008;2023-06-26T06:46:07;10.33;;;9.27;;
3333;SDS011;1679;50.392;8.008;2023-06-26T06:48:33;9.80;;;8.80;;
3333;SDS011;1679;50.392;8.008;2023-06-26T06:50:59;9.33;;;8.63;;
3333;SDS011;1679;50.392;8.008;2023-06-26T06:53:24;7.60;;;7.00;;
3333;SDS011;1679;50.392;8.008;2023-06-26T06:55:50;8.47;;;7.83;;
3333;SDS011;1679;50.392;8.008;2023-06-26T06:58:15;8.10;;;7.50;;
3333;SDS011;1679;50.392;8.008;2023-06-26T07:00:45;7.47;;;6.87;;
3333;SDS011;1679;50.392;8.008;2023-06-26T07:03:10;7.47;;;6.87;;
3333;SDS011;1679;50.392;8.008;2023-06-26T07:05:36;7.73;;;7.03;;
3333;SDS011;1679;50.392;8.008;2023-06-26T07:08:02;6.70;;;6.13;;
3333;SDS011;1679;50.392;8.008;2023-06-26T07:10:28;7.20;;;6.57;;
3333;SDS011;1679;50.392;8.008;2023-06-26T07:12:55;6.47;;;5.97;;
3333;SDS011;1679;50.392;8.008;2023-06-26T07:15:22;7.03;;;6.30;;
3333;SDS011;1679;50.392;8.008;2023-06-26T07:17:47;7.20;;;6.50;;
3333;SDS011;1679;50.392;8.008;2023-06-26T07:20:13;6.70;;;6.20;;
3333;SDS011;1679;50.392;8.008;2023-06-26T07:22:42;6.70;;;6.10;;
3333;SDS011;1679;50.392;8.008;2023-06-26T07:25:09;12.93;;;6.80;;
3333;SDS011;1679;50.392;8.008;2023-06-26T07:27:39;7.63;;;6.80;;
3333;SDS011;1679;50.392;8.008;2023-06-26T07:30:05;7.87;;;7.27;;
3333;SDS011;1679;50.392;8.008;2023-06-26T07:32:34;7.90;;;7.20;;
3333;SDS011;1679;50.392;8.008;2023-06-26T07:34:59;7.57;;;6.97;;
3333;SDS011;1679;50.392;8.008;2023-06-26T07:37:26;7.17;;;6.67;;
3333;SDS011;1679;50.392;8.008;2023-06-26T07:39:51;7.53;;;6.67;;
3333;SDS011;1679;50.392;8.008;2023-06-26T07:42:17;6.90;;;6.40;;
3333;SDS011;1679;50.392;8.008;2023-06-26T07:44:43;7.57;;;7.03;;
3333;SDS011;1679;50.392;8.008;2023-06-26T07:47:08;6.97;;;6.37;;
3333;SDS011;1679;50.392;8.008;2023-06-26T07:49:34;7.70;;;7.10;;
3333;SDS011;1679;50.392;8.008;2023-06-26T07:52:00;7.37;;;6.60;;
3333;SDS011;1679;50.392;8.008;2023-06-26T07:54:26;7.13;;;6.60;;
3333;SDS011;1679;50.392;8.008;2023-06-26T07:56:58;10.80;;;6.83;;
3333;SDS011;1679;50.392;8.008;2023-06-26T07:59:29;7.43;;;6.93;;
3333;SDS011;1679;50.392;8.008;2023-06-26T08:01:55;7.27;;;6.77;;
3333;SDS011;1679;50.392;8.008;2023-06-26T08:04:22;7.47;;;6.87;;
3333;SDS011;1679;50.392;8.008;2023-06-26T08:06:49;7.53;;;6.93;;
3333;SDS011;1679;50.392;8.008;2023-06-26T08:09:17;9.30;;;7.80;;
3333;SDS011;1679;50.392;8.008;2023-06-26T08:11:44;8.70;;;7.97;;
3333;SDS011;1679;50.392;8.008;2023-06-26T08:14:09;8.40;;;7.60;;
3333;SDS011;1679;50.392;8.008;2023-06-26T08:16:36;8.50;;;7.80;;
3333;SDS011;1679;50.392;8.008;2023-06-26T08:19:05;9.43;;;8.73;;
3333;SDS011;1679;50.392;8.008;2023-06-26T08:21:31;8.27;;;7.47;;
3333;SDS011;1679;50.392;8.008;2023-06-26T08:23:57;8.90;;;8.20;;
3333;SDS011;1679;50.392;8.008;2023-06-26T08:26:22;7.13;;;6.53;;
3333;SDS011;1679;50.392;8.008;2023-06-26T08:28:48;8.03;;;7.33;;
3333;SDS011;1679;50.392;8.008;2023-06-26T08:31:14;7.60;;;7.10;;
3333;SDS011;1679;50.392;8.008;2023-06-26T08:33:39;8.00;;;7.17;;
3333;SDS011;1679;50.392;8.008;2023-06-26T08:36:05;8.20;;;7.50;;
3333;SDS011;1679;50.392;8.008;2023-06-26T08:38:31;8.47;;;7.77;;
3333;SDS011;1679;50.392;8.008;2023-06-26T08:40:58;7.73;;;7.10;;
3333;SDS011;1679;50.392;8.008;2023-06-26T08:43:24;8.07;;;7.37;;
3333;SDS011;1679;50.392;8.008;2023-06-26T08:45:51;6.60;;;6.10;;
3333;SDS011;1679;50.392;8.008;2023-06-26T08:48:17;7.23;;;6.53;;
3333;SDS011;1679;50.392;8.008;2023-06-26T08:50:43;6.60;;;6.10;;
3333;SDS011;1679;50.392;8.008;2023-06-26T08:55:38;7.20;;;6.50;;
3333;SDS011;1679;50.392;8.008;2023-06-26T08:58:08;7.53;;;6.83;;
3333;SDS011;1679;50.392;8.008;2023-06-26T09:00:35;7.20;;;6.70;;
3333;SDS011;1679;50.392;8.008;2023-06-26T09:03:00;12.90;;;6.73;;
3333;SDS011;1679;50.392;8.008;2023-06-26T09:05:28;9.63;;;6.77;;
3333;SDS011;1679;50.392;8.008;2023-06-26T09:07:56;8.50;;;5.63;;
3333;SDS011;1679;50.392;8.008;2023-06-26T09:10:22;7.33;;;6.43;;
3333;SDS011;1679;50.392;8.008;2023-06-26T09:12:47;7.03;;;6.30;;
3333;SDS011;1679;50.392;8.008;2023-06-26T09:15:19;6.60;;;6.00;;
3333;SDS011;1679;50.392;8.008;2023-06-26T09:17:45;7.10;;;6.50;;
3333;SDS011;1679;50.392;8.008;2023-06-26T09:20:11;11.30;;;6.50;;
3333;SDS011;1679;50.392;8.008;2023-06-26T09:22:40;5.60;;;5.20;;
3333;SDS011;1679;50.392;8.008;2023-06-26T09:25:08;8.30;;;5.00;;
3333;SDS011;1679;50.392;8.008;2023-06-26T09:27:34;6.30;;;5.70;;
3333;SDS011;1679;50.392;8.008;2023-06-26T09:30:06;6.27;;;5.73;;
3333;SDS011;1679;50.392;8.008;2023-06-26T09:32:34;6.20;;;5.70;;
3333;SDS011;1679;50.392;8.008;2023-06-26T09:35:01;6.10;;;5.50;;
3333;SDS011;1679;50.392;8.008;2023-06-26T09:37:28;9.80;;;6.77;;
3333;SDS011;1679;50.392;8.008;2023-06-26T09:39:56;7.40;;;5.80;;
3333;SDS011;1679;50.392;8.008;2023-06-26T09:42:21;6.53;;;5.57;;
3333;SDS011;1679;50.392;8.008;2023-06-26T09:44:48;9.07;;;5.67;;
3333;SDS011;1679;50.392;8.008;2023-06-26T09:47:18;6.50;;;6.00;;
3333;SDS011;1679;50.392;8.008;2023-06-26T09:49:45;9.17;;;5.87;;
3333;SDS011;1679;50.392;8.008;2023-06-26T09:52:15;9.07;;;6.33;;
3333;SDS011;1679;50.392;8.008;2023-06-26T09:54:44;6.27;;;5.67;;
3333;SDS011;1679;50.392;8.008;2023-06-26T09:57:15;6.30;;;5.60;;
3333;SDS011;1679;50.392;8.008;2023-06-26T09:59:42;6.97;;;5.53;;
3333;SDS011;1679;50.392;8.008;2023-06-26T10:02:10;6.10;;;5.70;;
3333;SDS011;1679;50.392;8.008;2023-06-26T10:04:36;6.10;;;5.57;;
3333;SDS011;1679;50.392;8.008;2023-06-26T10:07:04;6.40;;;5.90;;
3333;SDS011;1679;50.392;8.008;2023-06-26T10:09:31;6.27;;;5.70;;
3333;SDS011;1679;50.392;8.008;2023-06-26T10:12:00;6.67;;;5.90;;
3333;SDS011;1679;50.392;8.008;2023-06-26T10:14:31;6.93;;;6.27;;
3333;SDS011;1679;50.392;8.008;2023-06-26T10:17:01;6.30;;;5.83;;
3333;SDS011;1679;50.392;8.008;2023-06-26T10:19:29;7.93;;;5.87;;
3333;SDS011;1679;50.392;8.008;2023-06-26T10:21:57;7.00;;;6.10;;
3333;SDS011;1679;50.392;8.008;2023-06-26T10:24:26;8.73;;;6.20;;
3333;SDS011;1679;50.392;8.008;2023-06-26T10:26:58;8.70;;;6.00;;
3333;SDS011;1679;50.392;8.008;2023-06-26T10:29:28;6.40;;;6.00;;
3333;SDS011;1679;50.392;8.008;2023-06-26T10:31:55;6.93;;;5.90;;
3333;SDS011;1679;50.392;8.008;2023-06-26T10:34:23;7.30;;;6.07;;
3333;SDS011;1679;50.392;8.008;2023-06-26T10:36:58;6.17;;;5.70;;
3333;SDS011;1679;50.392;8.008;2023-06-26T10:39:32;6.17;;;5.67;;
3333;SDS011;1679;50.392;8.008;2023-06-26T10:42:10;6.40;;;5.80;;
3333;SDS011;1679;50.392;8.008;2023-06-26T10:44:46;7.30;;;6.07;;
3333;SDS011;1679;50.392;8.008;2023-06-26T10:47:28;6.63;;;5.60;;
3333;SDS011;1679;50.392;8.008;2023-06-26T10:49:55;8.90;;;6.40;;
3333;SDS011;1679;50.392;8.008;2023-06-26T10:52:21;6.63;;;5.80;;
3333;SDS011;1679;50.392;8.008;2023-06-26T10:54:46;7.33;;;6.73;;
3333;SDS011;1679;50.392;8.008;2023-06-26T10:57:12;6.87;;;6.10;;
3333;SDS011;1679;50.392;8.008;2023-06-26T10:59:49;6.63;;;6.00;;
3333;SDS011;1679;50.392;8.008;2023-06-26T11:02:49;6.90;;;6.23;;
3333;SDS011;1679;50.392;8.008;2023-06-26T11:05:26;6.17;;;5.67;;
3333;SDS011;1679;50.392;8.008;2023-06-26T11:08:03;7.87;;;5.83;;
3333;SDS011;1679;50.392;8.008;2023-06-26T11:10:29;8.73;;;6.00;;
3333;SDS011;1679;50.392;8.008;2023-06-26T11:13:12;6.57;;;5.97;;
3333;SDS011;1679;50.392;8.008;2023-06-26T11:15:38;6.50;;;5.90;;
3333;SDS011;1679;50.392;8.008;2023-06-26T11:18:05;8.87;;;5.60;;
3333;SDS011;1679;50.392;8.008;2023-06-26T11:20:31;6.40;;;5.73;;
3333;SDS011;1679;50.392;8.008;2023-06-26T11:22:57;5.63;;;5.17;;
3333;SDS011;1679;50.392;8.008;2023-06-26T11:25:23;5.53;;;5.03;;
3333;SDS011;1679;50.392;8.008;2023-06-26T11:27:49;6.07;;;5.47;;
3333;SDS011;1679;50.392;8.008;2023-06-26T11:30:22;8.23;;;5.60;;
3333;SDS011;1679;50.392;8.008;2023-06-26T11:32:49;7.67;;;5.70;;
3333;SDS011;1679;50.392;8.008;2023-06-26T11:35:24;5.73;;;5.23;;
3333;SDS011;1679;50.392;8.008;2023-06-26T11:37:56;6.30;;;5.70;;
3333;SDS011;1679;50.392;8.008;2023-06-26T11:40:25;7.20;;;5.43;;
3333;SDS011;1679;50.392;8.008;2023-06-26T11:42:55;11.23;;;6.20;;
3333;SDS011;1679;50.392;8.008;2023-06-26T11:45:20;8.10;;;5.83;;
3333;SDS011;1679;50.392;8.008;2023-06-26T11:47:46;5.90;;;5.40;;
3333;SDS011;1679;50.392;8.008;2023-06-26T11:50:15;10.03;;;4.93;;
3333;SDS011;1679;50.392;8.008;2023-06-26T11:52:42;4.77;;;4.40;;
3333;SDS011;1679;50.392;8.008;2023-06-26T11:55:08;5.90;;;4.80;;
3333;SDS011;1679;50.392;8.008;2023-06-26T11:57:35;7.50;;;4.57;;
3333;SDS011;1679;50.392;8.008;2023-06-26T12:00:10;5.03;;;4.33;;
3333;SDS011;1679;50.392;8.008;2023-06-26T12:02:39;4.63;;;4.10;;
3333;SDS011;1679;50.392;8.008;2023-06-26T12:05:05;5.63;;;5.13;;
3333;SDS011;1679;50.392;8.008;2023-06-26T12:07:32;6.10;;;4.30;;
3333;SDS011;1679;50.392;8.008;2023-06-26T12:09:58;4.30;;;3.90;;
3333;SDS011;1679;50.392;8.008;2023-06-26T12:12:24;4.90;;;4.30;;
3333;SDS011;1679;50.392;8.008;2023-06-26T12:14:51;6.73;;;3.93;;
3333;SDS011;1679;50.392;8.008;2023-06-26T12:17:17;14.93;;;4.00;;
3333;SDS011;1679;50.392;8.008;2023-06-26T12:19:47;4.77;;;3.50;;
3333;SDS011;1679;50.392;8.008;2023-06-26T12:22:18;4.43;;;4.10;;
3333;SDS011;1679;50.392;8.008;2023-06-26T12:24:45;5.53;;;3.50;;
3333;SDS011;1679;50.392;8.008;2023-06-26T12:27:13;3.70;;;3.30;;
3333;SDS011;1679;50.392;8.008;2023-06-26T12:29:40;4.70;;;3.50;;
3333;SDS011;1679;50.392;8.008;2023-06-26T12:32:12;12.03;;;4.13;;
3333;SDS011;1679;50.392;8.008;2023-06-26T12:34:39;3.83;;;3.30;;
3333;SDS011;1679;50.392;8.008;2023-06-26T12:37:06;8.60;;;4.07;;
3333;SDS011;1679;50.392;8.008;2023-06-26T12:39:52;3.63;;;3.33;;
3333;SDS011;1679;50.392;8.008;2023-06-26T12:42:28;4.10;;;3.27;;
3333;SDS011;1679;50.392;8.008;2023-06-26T12:44:57;5.13;;;3.00;;
3333;SDS011;1679;50.392;8.008;2023-06-26T12:47:26;3.67;;;3.07;;
3333;SDS011;1679;50.392;8.008;2023-06-26T12:49:53;6.03;;;3.27;;
3333;SDS011;1679;50.392;8.008;2023-06-26T12:52:19;3.47;;;3.17;;
3333;SDS011;1679;50.392;8.008;2023-06-26T12:54:45;3.13;;;2.83;;
3333;SDS011;1679;50.392;8.008;2023-06-26T12:57:12;3.97;;;3.03;;
3333;SDS011;1679;50.392;8.008;2023-06-26T12:59:39;4.60;;;3.53;;
3333;SDS011;1679;50.392;8.008;2023-06-26T13:02:05;5.07;;;2.70;;
3333;SDS011;1679;50.392;8.008;2023-06-26T13:04:31;5.50;;;2.97;;
3333;SDS011;1679;50.392;8.008;2023-06-26T13:06:57;5.10;;;2.57;;
3333;SDS011;1679;50.392;8.008;2023-06-26T13:09:23;5.00;;;2.80;;
3333;SDS011;1679;50.392;8.008;2023-06-26T13:11:50;3.60;;;2.90;;
3333;SDS011;1679;50.392;8.008;2023-06-26T13:14:18;3.43;;;2.63;;
3333;SDS011;1679;50.392;8.008;2023-06-26T13:16:44;2.77;;;2.20;;
3333;SDS011;1679;50.392;8.008;2023-06-26T13:19:10;6.70;;;2.57;;
3333;SDS011;1679;50.392;8.008;2023-06-26T13:21:35;4.13;;;2.70;;
3333;SDS011;1679;50.392;8.008;2023-06-26T13:24:03;6.87;;;2.57;;
3333;SDS011;1679;50.392;8.008;2023-06-26T13:26:29;4.20;;;2.70;;
3333;SDS011;1679;50.392;8.008;2023-06-26T13:28:54;4.77;;;3.07;;
3333;SDS011;1679;50.392;8.008;2023-06-26T13:31:20;6.63;;;2.40;;
3333;SDS011;1679;50.392;8.008;2023-06-26T13:33:46;4.87;;;2.30;;
3333;SDS011;1679;50.392;8.008;2023-06-26T13:36:17;2.17;;;2.00;;
3333;SDS011;1679;50.392;8.008;2023-06-26T13:38:43;2.80;;;2.60;;
3333;SDS011;1679;50.392;8.008;2023-06-26T13:41:08;3.73;;;2.20;;
3333;SDS011;1679;50.392;8.008;2023-06-26T13:43:34;5.30;;;2.10;;
3333;SDS011;1679;50.392;8.008;2023-06-26T13:46:00;4.10;;;2.23;;
3333;SDS011;1679;50.392;8.008;2023-06-26T13:48:26;5.97;;;1.90;;
3333;SDS011;1679;50.392;8.008;2023-06-26T13:50:52;2.03;;;1.93;;
3333;SDS011;1679;50.392;8.008;2023-06-26T13:53:18;2.43;;;2.20;;
3333;SDS011;1679;50.392;8.008;2023-06-26T13:55:43;6.40;;;2.10;;
3333;SDS011;1679;50.392;8.008;2023-06-26T13:58:09;3.33;;;2.20;;
3333;SDS011;1679;50.392;8.008;2023-06-26T14:00:36;4.47;;;2.30;;
3333;SDS011;1679;50.392;8.008;2023-06-26T14:03:02;3.43;;;2.07;;
3333;SDS011;1679;50.392;8.008;2023-06-26T14:05:29;6.17;;;2.23;;
3333;SDS011;1679;50.392;8.008;2023-06-26T14:07:55;3.10;;;2.30;;
3333;SDS011;1679;50.392;8.008;2023-06-26T14:10:22;5.40;;;2.50;;
3333;SDS011;1679;50.392;8.008;2023-06-26T14:12:48;2.27;;;2.07;;
3333;SDS011;1679;50.392;8.008;2023-06-26T14:15:14;6.40;;;2.70;;
3333;SDS011;1679;50.392;8.008;2023-06-26T14:17:39;4.23;;;2.20;;
3333;SDS011;1679;50.392;8.008;2023-06-26T14:20:08;2.80;;;2.47;;
3333;SDS011;1679;50.392;8.008;2023-06-26T14:22:37;3.57;;;2.20;;
3333;SDS011;1679;50.392;8.008;2023-06-26T14:25:07;2.90;;;2.70;;
3333;SDS011;1679;50.392;8.008;2023-06-26T14:27:37;3.70;;;2.43;;
3333;SDS011;1679;50.392;8.008;2023-06-26T14:30:03;2.17;;;2.07;;
3333;SDS011;1679;50.392;8.008;2023-06-26T14:32:30;3.07;;;2.20;;
3333;SDS011;1679;50.392;8.008;2023-06-26T14:34:57;4.83;;;2.07;;
3333;SDS011;1679;50.392;8.008;2023-06-26T14:37:23;5.13;;;2.13;;
3333;SDS011;1679;50.392;8.008;2023-06-26T14:39:49;2.80;;;2.10;;
3333;SDS011;1679;50.392;8.008;2023-06-26T14:42:15;3.80;;;2.20;;
3333;SDS011;1679;50.392;8.008;2023-06-26T14:44:40;4.67;;;2.70;;
3333;SDS011;1679;50.392;8.008;2023-06-26T14:47:07;5.37;;;2.63;;
3333;SDS011;1679;50.392;8.008;2023-06-26T14:49:32;2.43;;;2.07;;
3333;SDS011;1679;50.392;8.008;2023-06-26T14:51:58;2.53;;;1.90;;
3333;SDS011;1679;50.392;8.008;2023-06-26T14:54:24;3.20;;;2.20;;
3333;SDS011;1679;50.392;8.008;2023-06-26T14:56:50;4.17;;;2.90;;
3333;SDS011;1679;50.392;8.008;2023-06-26T14:59:15;6.60;;;3.43;;
3333;SDS011;1679;50.392;8.008;2023-06-26T15:01:41;4.10;;;2.60;;
3333;SDS011;1679;50.392;8.008;2023-06-26T15:04:07;4.30;;;2.20;;
3333;SDS011;1679;50.392;8.008;2023-06-26T15:06:33;4.53;;;2.57;;
3333;SDS011;1679;50.392;8.008;2023-06-26T15:08:59;3.70;;;2.10;;
3333;SDS011;1679;50.392;8.008;2023-06-26T15:11:25;2.27;;;2.07;;